Time;durP1;ratioP1;P1;durP2;ratioP2;P2;SDS_P1;SDS_P2;PMS_P1;PMS_P2;Temp;Humidity;BMP_temperature;BMP_pressure;BME280_temperature;BME280_humidity;BME280_pressure;Samples;Min_cycle;Max_cycle;Signal;HPM_P1;HPM_P2
2024/01/09 00:01:43;;;;;;;1.57;0.70;;;-1.60;99.90;;;;;;4979972;28;20523;-78
2024/01/09 00:04:10;;;;;;;1.42;1.42;;;-1.70;99.90;;;;;;4972473;28;20822;-78
2024/01/09 00:06:35;;;;;;;1.00;1.00;;;-1.70;99.90;;;;;;4983157;28;20130;-78
2024/01/09 00:09:02;;;;;;;1.03;1.00;;;-1.70;99.90;;;;;;4979432;28;20553;-79
2024/01/09 00:11:28;;;;;;;2.30;2.10;;;-1.70;99.90;;;;;;4983672;28;20428;-79
2024/01/09 00:13:54;;;;;;;1.07;1.07;;;-1.70;99.90;;;;;;4984978;28;20049;-79
2024/01/09 00:16:20;;;;;;;0.77;0.77;;;-1.70;99.90;;;;;;4978153;28;20058;-79
2024/01/09 00:18:45;;;;;;;1.80;0.90;;;-1.70;99.90;;;;;;4975317;28;20876;-79
2024/01/09 00:21:11;;;;;;;1.43;1.37;;;-1.70;99.90;;;;;;4985090;28;20065;-79
2024/01/09 00:23:37;;;;;;;1.00;0.97;;;-1.70;99.90;;;;;;4984536;28;20046;-79
2024/01/09 00:26:02;;;;;;;1.17;1.13;;;-1.70;99.90;;;;;;4984088;28;20093;-79
2024/01/09 00:28:28;;;;;;;4.07;0.97;;;-1.70;99.90;;;;;;4984104;28;20054;-79
2024/01/09 00:30:54;;;;;;;1.27;1.17;;;-1.80;99.90;;;;;;4975716;28;20043;-80
2024/01/09 00:33:19;;;;;;;1.40;1.40;;;-1.80;99.90;;;;;;4968333;28;20042;-79
2024/01/09 00:35:45;;;;;;;0.77;0.77;;;-1.80;99.90;;;;;;4985270;28;20050;-79
2024/01/09 00:38:10;;;;;;;1.00;1.00;;;-1.80;99.90;;;;;;4973718;28;20055;-79
2024/01/09 00:40:36;;;;;;;1.40;0.67;;;-1.80;99.90;;;;;;4964759;28;20496;-79
2024/01/09 00:43:02;;;;;;;0.60;0.60;;;-1.80;99.90;;;;;;4999312;28;20134;-79
2024/01/09 00:45:27;;;;;;;1.63;1.53;;;-1.80;99.90;;;;;;4964287;28;20056;-80
2024/01/09 00:47:53;;;;;;;1.00;0.97;;;-1.80;99.90;;;;;;4963984;28;20489;-80
2024/01/09 00:50:19;;;;;;;0.60;0.60;;;-1.80;99.90;;;;;;4977983;28;20065;-79
2024/01/09 00:52:44;;;;;;;0.87;0.87;;;-1.80;99.90;;;;;;4984139;28;20042;-78
2024/01/09 00:55:10;;;;;;;3.93;1.10;;;-1.80;99.90;;;;;;4980226;28;20053;-79
2024/01/09 00:57:36;;;;;;;1.03;1.03;;;-1.90;99.90;;;;;;4964564;28;20050;-79
2024/01/09 01:00:02;;;;;;;2.00;1.90;;;-1.90;99.90;;;;;;4969144;28;20049;-79
2024/01/09 01:02:28;;;;;;;0.97;0.97;;;-1.90;99.90;;;;;;4974004;28;20404;-79
2024/01/09 01:04:53;;;;;;;0.50;0.50;;;-1.90;99.90;;;;;;4982297;28;20046;-81
2024/01/09 01:07:19;;;;;;;0.83;0.83;;;-1.90;99.90;;;;;;4965373;28;20181;-80
2024/01/09 01:09:45;;;;;;;0.53;0.47;;;-1.90;99.90;;;;;;4966262;28;20042;-80
2024/01/09 01:12:10;;;;;;;1.40;1.30;;;-1.90;99.90;;;;;;4969790;28;20050;-80
2024/01/09 01:14:36;;;;;;;1.47;1.37;;;-1.90;99.90;;;;;;4982423;28;20050;-79
2024/01/09 01:17:01;;;;;;;0.63;0.63;;;-1.90;99.90;;;;;;4983421;28;20050;-80
2024/01/09 01:19:27;;;;;;;1.70;1.23;;;-2.00;99.90;;;;;;4967411;28;20050;-80
2024/01/09 01:21:53;;;;;;;0.47;0.47;;;-2.00;99.90;;;;;;4964529;28;20043;-80
2024/01/09 01:24:18;;;;;;;0.73;0.73;;;-2.00;99.90;;;;;;4967211;28;20383;-80
2024/01/09 01:26:44;;;;;;;2.07;1.80;;;-2.00;99.90;;;;;;4996359;28;20070;-80
2024/01/09 01:29:10;;;;;;;1.23;0.37;;;-2.00;99.90;;;;;;4995651;28;20149;-80
2024/01/09 01:31:35;;;;;;;0.50;0.50;;;-2.00;99.90;;;;;;4963491;28;20046;-81
2024/01/09 01:34:01;;;;;;;0.53;0.53;;;-2.00;99.90;;;;;;4975186;28;20510;-80
2024/01/09 01:36:26;;;;;;;0.80;0.80;;;-2.00;99.90;;;;;;4970206;28;20045;-80
2024/01/09 01:38:52;;;;;;;5.83;0.83;;;-2.00;99.90;;;;;;4966179;28;20137;-81
2024/01/09 01:41:17;;;;;;;0.63;0.63;;;-2.00;99.90;;;;;;4976938;28;20039;-80
2024/01/09 01:43:43;;;;;;;0.63;0.63;;;-2.00;99.90;;;;;;4971125;28;20061;-80
2024/01/09 01:46:09;;;;;;;0.97;0.97;;;-2.00;99.90;;;;;;5013573;28;20030;-80
2024/01/09 01:48:35;;;;;;;0.37;0.37;;;-2.00;99.90;;;;;;4981284;28;20401;-80
2024/01/09 01:51:02;;;;;;;0.87;0.87;;;-2.10;99.90;;;;;;4963871;28;20118;-80
2024/01/09 01:53:30;;;;;;;0.30;0.30;;;-2.10;99.90;;;;;;4967828;28;20061;-80
2024/01/09 01:55:56;;;;;;;3.47;0.80;;;-2.10;99.90;;;;;;4979143;28;20402;-81
2024/01/09 01:58:24;;;;;;;1.03;1.03;;;-2.10;99.90;;;;;;4962994;28;20061;-81
2024/01/09 02:00:50;;;;;;;0.67;0.67;;;-2.10;99.90;;;;;;5008175;28;20042;-81
2024/01/09 02:03:16;;;;;;;0.70;0.70;;;-2.10;99.90;;;;;;4997789;28;20049;-80
2024/01/09 02:05:41;;;;;;;2.93;1.63;;;-2.10;99.90;;;;;;4995321;28;20094;-80
2024/01/09 02:08:07;;;;;;;0.60;0.60;;;-2.10;99.90;;;;;;4967474;28;20042;-80
2024/01/09 02:10:33;;;;;;;0.93;0.93;;;-2.10;99.90;;;;;;5059318;23;20049;-80
2024/01/09 02:12:58;;;;;;;1.40;1.20;;;-2.20;99.90;;;;;;5000609;28;20046;-80
2024/01/09 02:15:24;;;;;;;1.50;1.40;;;-2.20;99.90;;;;;;4999826;28;20120;-80
2024/01/09 02:17:50;;;;;;;0.73;0.73;;;-2.20;99.90;;;;;;4983155;28;20081;-81
2024/01/09 02:20:19;;;;;;;1.60;1.50;;;-2.20;99.90;;;;;;4990078;28;20140;-80
2024/01/09 02:22:45;;;;;;;1.03;1.00;;;-2.20;99.90;;;;;;4985277;28;20515;-80
2024/01/09 02:25:10;;;;;;;2.17;1.37;;;-2.20;99.90;;;;;;4991255;28;20046;-81
2024/01/09 02:27:53;;;;;;;1.03;1.00;;;-2.20;99.90;;;;;;4988246;28;20117;-80
2024/01/09 02:30:18;;;;;;;0.52;0.52;;;-2.20;99.90;;;;;;4984903;28;20065;-80
2024/01/09 02:32:44;;;;;;;0.50;0.50;;;-2.20;99.90;;;;;;4987329;28;20034;-80
2024/01/09 02:35:10;;;;;;;1.10;1.10;;;-2.20;99.90;;;;;;5001879;28;20076;-81
2024/01/09 02:37:35;;;;;;;1.90;1.70;;;-2.20;99.90;;;;;;5001109;28;20052;-81
2024/01/09 02:40:02;;;;;;;1.70;1.60;;;-2.20;99.90;;;;;;4999882;28;20037;-81
2024/01/09 02:42:28;;;;;;;1.17;1.17;;;-2.30;99.90;;;;;;5001696;28;20042;-80
2024/01/09 02:44:56;;;;;;;5.97;0.73;;;-2.20;99.90;;;;;;5000049;28;20068;-81
2024/01/09 02:47:22;;;;;;;1.00;1.00;;;-2.30;99.90;;;;;;4984417;28;20050;-81
2024/01/09 02:49:47;;;;;;;0.80;0.80;;;-2.30;99.90;;;;;;4982887;28;20480;-80
2024/01/09 02:52:13;;;;;;;2.40;2.20;;;-2.30;99.90;;;;;;4987982;28;20046;-82
2024/01/09 02:54:39;;;;;;;3.50;1.13;;;-2.30;99.90;;;;;;4983175;28;20057;-82
2024/01/09 02:57:05;;;;;;;4.03;2.10;;;-2.30;99.90;;;;;;4981452;28;20042;-82
2024/01/09 02:59:30;;;;;;;0.67;0.67;;;-2.30;99.90;;;;;;4991909;28;20046;-82
2024/01/09 03:01:56;;;;;;;0.47;0.47;;;-2.40;99.90;;;;;;5017150;28;20748;-83
2024/01/09 03:04:21;;;;;;;0.83;0.63;;;-2.30;99.90;;;;;;5002218;28;20443;-83
2024/01/09 03:06:47;;;;;;;0.50;0.50;;;-2.40;99.90;;;;;;4984156;28;20129;-82
2024/01/09 03:09:12;;;;;;;0.60;0.60;;;-2.40;99.90;;;;;;4989124;28;20037;-82
2024/01/09 03:11:38;;;;;;;1.87;1.47;;;-2.40;99.90;;;;;;4995744;28;20097;-82
2024/01/09 03:14:03;;;;;;;1.83;1.73;;;-2.40;99.90;;;;;;4985994;28;20045;-82
2024/01/09 03:16:29;;;;;;;0.90;0.90;;;-2.40;99.90;;;;;;4998713;28;20059;-82
2024/01/09 03:18:55;;;;;;;3.37;1.87;;;-2.40;99.90;;;;;;5000122;28;20041;-83
2024/01/09 03:21:21;;;;;;;0.47;0.47;;;-2.40;99.90;;;;;;4970466;28;20042;-83
2024/01/09 03:23:46;;;;;;;1.37;1.37;;;-2.40;99.90;;;;;;4969648;28;20485;-82
2024/01/09 03:26:12;;;;;;;0.70;0.70;;;-2.50;99.90;;;;;;4996362;28;20544;-82
2024/01/09 03:28:38;;;;;;;0.47;0.47;;;-2.50;99.90;;;;;;4987908;28;20038;-82
2024/01/09 03:31:03;;;;;;;1.40;1.17;;;-2.50;99.90;;;;;;4999202;28;20034;-82
2024/01/09 03:33:29;;;;;;;0.77;0.77;;;-2.50;99.90;;;;;;4986220;28;20050;-82
2024/01/09 03:35:54;;;;;;;1.27;0.97;;;-2.50;99.90;;;;;;4997566;28;20042;-83
2024/01/09 03:38:20;;;;;;;1.07;0.90;;;-2.50;99.90;;;;;;4985099;28;20531;-83
2024/01/09 03:40:46;;;;;;;1.33;1.23;;;-2.50;99.90;;;;;;4975096;28;20034;-82
2024/01/09 03:43:11;;;;;;;1.30;0.50;;;-2.50;99.90;;;;;;5005047;28;20068;-81
2024/01/09 03:45:37;;;;;;;0.73;0.73;;;-2.60;99.90;;;;;;5004269;28;20120;-82
2024/01/09 03:48:03;;;;;;;1.33;1.23;;;-2.60;99.90;;;;;;4986994;28;20041;-82
2024/01/09 03:50:28;;;;;;;0.47;0.47;;;-2.60;99.90;;;;;;5003607;28;20038;-82
2024/01/09 03:52:54;;;;;;;1.57;1.47;;;-2.60;99.90;;;;;;5003867;28;20038;-83
2024/01/09 03:55:20;;;;;;;0.80;0.80;;;-2.60;99.90;;;;;;5004637;28;20053;-82
2024/01/09 03:57:45;;;;;;;0.63;0.63;;;-2.60;99.90;;;;;;4993311;28;20042;-82
2024/01/09 04:00:11;;;;;;;0.83;0.27;;;-2.60;99.90;;;;;;4995289;28;20209;-82
2024/01/09 04:02:37;;;;;;;1.60;1.50;;;-2.60;99.90;;;;;;4985989;28;20050;-82
2024/01/09 04:05:04;;;;;;;0.23;0.23;;;-2.60;99.90;;;;;;4994753;28;20038;-83
2024/01/09 04:07:30;;;;;;;0.60;0.40;;;-2.60;99.90;;;;;;4986309;28;20043;-83
2024/01/09 04:09:56;;;;;;;3.03;0.97;;;-2.60;99.90;;;;;;4998039;28;20045;-83
2024/01/09 04:12:21;;;;;;;1.43;1.40;;;-2.60;99.90;;;;;;5001908;28;20062;-83
2024/01/09 04:14:47;;;;;;;0.77;0.77;;;-2.60;99.90;;;;;;4987784;28;20498;-83
2024/01/09 04:17:12;;;;;;;1.17;1.17;;;-2.60;99.90;;;;;;5004789;28;20103;-83
2024/01/09 04:19:39;;;;;;;1.20;1.20;;;-2.60;99.90;;;;;;4992307;28;20046;-82
2024/01/09 04:22:06;;;;;;;1.50;1.40;;;-2.60;99.90;;;;;;4976003;28;20038;-83
2024/01/09 04:24:33;;;;;;;0.93;0.93;;;-2.60;99.90;;;;;;4988279;28;20709;-83
2024/01/09 04:26:59;;;;;;;0.90;0.90;;;-2.60;99.90;;;;;;5002041;28;20091;-83
2024/01/09 04:29:25;;;;;;;0.57;0.57;;;-2.70;99.90;;;;;;5003654;28;20042;-82
2024/01/09 04:31:51;;;;;;;2.27;1.70;;;-2.70;99.90;;;;;;5004442;28;20400;-83
2024/01/09 04:34:16;;;;;;;0.53;0.40;;;-2.70;99.90;;;;;;5003654;28;20042;-82
2024/01/09 04:36:42;;;;;;;0.53;0.53;;;-2.70;99.90;;;;;;5004991;28;20125;-82
2024/01/09 04:39:07;;;;;;;1.37;1.03;;;-2.70;99.90;;;;;;5003180;28;20096;-82
2024/01/09 04:41:33;;;;;;;1.67;1.23;;;-2.70;99.90;;;;;;5003863;28;20042;-83
2024/01/09 04:43:58;;;;;;;1.27;1.17;;;-2.70;99.90;;;;;;5003070;28;20044;-83
2024/01/09 04:46:24;;;;;;;0.67;0.67;;;-2.70;99.90;;;;;;5001465;28;20057;-82
2024/01/09 04:48:50;;;;;;;0.47;0.47;;;-2.70;99.90;;;;;;4990828;28;20134;-83
2024/01/09 04:51:15;;;;;;;1.10;1.07;;;-2.70;99.90;;;;;;5004625;28;20038;-82
2024/01/09 04:53:41;;;;;;;5.57;0.50;;;-2.70;99.90;;;;;;5003307;28;20580;-82
2024/01/09 04:56:06;;;;;;;1.13;0.93;;;-2.70;99.90;;;;;;5003015;28;20112;-83
2024/01/09 04:58:32;;;;;;;0.73;0.73;;;-2.70;99.90;;;;;;5003903;28;20534;-83
2024/01/09 05:00:58;;;;;;;1.63;1.53;;;-2.70;99.90;;;;;;4994316;28;20042;-83
2024/01/09 05:03:23;;;;;;;0.93;0.67;;;-2.70;99.90;;;;;;4994730;28;20477;-82
2024/01/09 05:05:49;;;;;;;1.57;1.53;;;-2.70;99.90;;;;;;4983409;28;20056;-82
2024/01/09 05:08:15;;;;;;;1.13;1.03;;;-2.70;99.90;;;;;;4984039;28;20481;-82
2024/01/09 05:10:40;;;;;;;0.90;0.77;;;-2.70;99.90;;;;;;4966921;28;20059;-82
2024/01/09 05:13:06;;;;;;;0.77;0.77;;;-2.70;99.90;;;;;;4996431;28;20547;-82
2024/01/09 05:15:32;;;;;;;1.03;1.03;;;-2.80;99.90;;;;;;4986037;28;20100;-83
2024/01/09 05:17:57;;;;;;;0.73;0.67;;;-2.80;99.90;;;;;;5003146;28;20077;-83
2024/01/09 05:20:23;;;;;;;1.13;0.87;;;-2.80;99.90;;;;;;5003761;28;20045;-83
2024/01/09 05:22:48;;;;;;;0.73;0.73;;;-2.80;99.90;;;;;;5004282;28;20176;-82
2024/01/09 05:25:14;;;;;;;1.00;1.00;;;-2.80;99.90;;;;;;5000720;28;20446;-83
2024/01/09 05:27:40;;;;;;;5.17;1.57;;;-2.80;99.90;;;;;;4991988;28;20053;-83
2024/01/09 05:30:08;;;;;;;9.43;1.60;;;-2.80;99.90;;;;;;4982649;28;20073;-83
2024/01/09 05:32:34;;;;;;;2.57;2.00;;;-2.80;99.90;;;;;;4997331;28;20038;-82
2024/01/09 05:35:01;;;;;;;1.80;0.77;;;-2.80;99.90;;;;;;4972594;28;20535;-83
2024/01/09 05:37:26;;;;;;;1.20;1.13;;;-2.80;99.90;;;;;;4984303;28;20503;-83
2024/01/09 05:39:52;;;;;;;6.93;1.30;;;-2.80;99.90;;;;;;4982798;28;20054;-83
2024/01/09 05:42:18;;;;;;;7.60;1.13;;;-2.80;99.90;;;;;;4989988;28;20172;-83
2024/01/09 05:44:43;;;;;;;1.43;1.00;;;-2.80;99.90;;;;;;5001510;28;20045;-82
2024/01/09 05:47:09;;;;;;;1.20;1.20;;;-2.80;99.90;;;;;;4992082;28;20727;-82
2024/01/09 05:49:34;;;;;;;0.80;0.80;;;-2.80;99.90;;;;;;5003213;28;20091;-83
2024/01/09 05:52:00;;;;;;;3.13;1.13;;;-2.90;99.90;;;;;;4962725;28;20448;-83
2024/01/09 05:54:26;;;;;;;1.50;1.00;;;-2.90;99.90;;;;;;4988188;28;20129;-83
2024/01/09 05:56:53;;;;;;;1.37;1.37;;;-2.90;99.90;;;;;;4997370;28;20116;-83
2024/01/09 05:59:18;;;;;;;0.87;0.67;;;-2.90;99.90;;;;;;4988999;28;20130;-82
2024/01/09 06:01:44;;;;;;;0.40;0.40;;;-2.90;99.90;;;;;;4984075;28;20125;-83
2024/01/09 06:04:12;;;;;;;1.10;1.10;;;-2.90;99.90;;;;;;5000005;28;20093;-82
2024/01/09 06:06:37;;;;;;;2.80;0.90;;;-2.90;99.90;;;;;;4990398;28;20034;-83
2024/01/09 06:09:03;;;;;;;1.17;1.17;;;-2.90;99.90;;;;;;4989711;28;20454;-83
2024/01/09 06:11:29;;;;;;;1.20;1.20;;;-2.90;99.90;;;;;;4994031;28;20121;-82
2024/01/09 06:13:55;;;;;;;0.57;0.57;;;-2.90;99.90;;;;;;4994045;28;20463;-83
2024/01/09 06:16:24;;;;;;;2.27;2.10;;;-2.90;99.90;;;;;;4993857;28;20049;-82
2024/01/09 06:18:50;;;;;;;0.83;0.83;;;-2.90;99.90;;;;;;4966203;28;20049;-82
2024/01/09 06:21:15;;;;;;;0.63;0.53;;;-2.90;99.90;;;;;;4993723;28;20125;-82
2024/01/09 06:23:41;;;;;;;0.90;0.90;;;-3.00;99.90;;;;;;5001759;28;20041;-82
2024/01/09 06:26:07;;;;;;;0.40;0.40;;;-3.00;99.90;;;;;;4990074;28;20189;-82
2024/01/09 06:28:33;;;;;;;1.93;1.53;;;-3.00;99.90;;;;;;4989228;28;20065;-82
2024/01/09 06:30:59;;;;;;;2.13;1.93;;;-3.00;99.90;;;;;;4990838;28;20068;-80
2024/01/09 06:33:26;;;;;;;0.43;0.43;;;-3.00;99.90;;;;;;4984003;28;20489;-81
2024/01/09 06:35:51;;;;;;;1.50;1.23;;;-3.00;99.90;;;;;;4998744;28;20030;-79
2024/01/09 06:38:17;;;;;;;0.70;0.70;;;-3.00;99.90;;;;;;4994073;28;20590;-80
2024/01/09 06:40:43;;;;;;;0.67;0.67;;;-3.00;99.90;;;;;;4989150;28;20104;-80
2024/01/09 06:43:09;;;;;;;2.17;1.50;;;-3.00;99.90;;;;;;4990166;28;20038;-81
2024/01/09 06:45:35;;;;;;;2.13;1.97;;;-3.00;99.90;;;;;;4993060;28;20188;-81
2024/01/09 06:48:00;;;;;;;2.90;2.70;;;-3.10;99.90;;;;;;4970421;28;20053;-81
2024/01/09 06:50:26;;;;;;;0.70;0.70;;;-3.10;99.90;;;;;;4994222;28;20042;-81
2024/01/09 06:52:51;;;;;;;2.63;2.43;;;-3.10;99.90;;;;;;4982350;28;20412;-81
2024/01/09 06:55:17;;;;;;;0.60;0.60;;;-3.10;99.90;;;;;;4989326;28;20062;-81
2024/01/09 06:57:43;;;;;;;1.00;1.00;;;-3.10;99.90;;;;;;4979636;28;20121;-80
2024/01/09 07:00:09;;;;;;;0.77;0.70;;;-3.10;99.90;;;;;;4991221;28;20273;-81
2024/01/09 07:02:35;;;;;;;1.63;1.53;;;-3.10;99.90;;;;;;4994582;28;20049;-80
2024/01/09 07:05:01;;;;;;;0.83;0.83;;;-3.10;99.90;;;;;;4981267;28;20061;-80
2024/01/09 07:07:26;;;;;;;1.80;1.70;;;-3.10;99.90;;;;;;4983671;28;20058;-79
2024/01/09 07:09:52;;;;;;;1.07;1.00;;;-3.10;99.90;;;;;;4982368;28;20054;-79
2024/01/09 07:12:18;;;;;;;3.30;1.93;;;-3.10;99.90;;;;;;5001766;28;20038;-81
2024/01/09 07:14:44;;;;;;;1.47;1.37;;;-3.10;99.90;;;;;;4992011;28;20044;-79
2024/01/09 07:17:09;;;;;;;0.80;0.80;;;-3.20;99.90;;;;;;4987553;28;20125;-81
2024/01/09 07:19:35;;;;;;;0.87;0.87;;;-3.20;99.90;;;;;;4998718;28;20120;-80
2024/01/09 07:22:00;;;;;;;3.43;1.83;;;-3.20;99.90;;;;;;4985142;28;20042;-80
2024/01/09 07:24:26;;;;;;;4.30;1.77;;;-3.20;99.90;;;;;;4983315;28;20047;-79
2024/01/09 07:26:52;;;;;;;0.50;0.50;;;-3.20;99.90;;;;;;4993025;28;20042;-78
2024/01/09 07:29:19;;;;;;;2.10;1.80;;;-3.20;99.90;;;;;;4982397;28;20128;-79
2024/01/09 07:31:45;;;;;;;1.50;1.40;;;-3.20;99.90;;;;;;4999704;28;20057;-79
2024/01/09 07:34:10;;;;;;;4.97;1.37;;;-3.20;99.90;;;;;;4999102;28;20085;-78
2024/01/09 07:36:36;;;;;;;0.83;0.83;;;-3.20;99.90;;;;;;4979501;28;20062;-79
2024/01/09 07:39:02;;;;;;;0.97;0.97;;;-3.20;99.90;;;;;;4979160;28;20137;-80
2024/01/09 07:41:28;;;;;;;1.50;1.40;;;-3.20;99.90;;;;;;4980457;28;20062;-79
2024/01/09 07:43:53;;;;;;;1.23;1.13;;;-3.20;99.90;;;;;;4995308;28;20531;-79
2024/01/09 07:46:19;;;;;;;1.03;1.03;;;-3.30;99.90;;;;;;4993649;28;20027;-79
2024/01/09 07:48:44;;;;;;;2.27;0.57;;;-3.20;99.90;;;;;;4966530;28;20046;-79
2024/01/09 07:51:10;;;;;;;1.67;1.57;;;-3.30;99.90;;;;;;4997884;28;20049;-79
2024/01/09 07:53:36;;;;;;;1.70;1.33;;;-3.30;99.90;;;;;;4995194;28;20129;-79
2024/01/09 07:56:02;;;;;;;1.00;1.00;;;-3.30;99.90;;;;;;4976513;28;20070;-79
2024/01/09 07:58:27;;;;;;;3.70;1.57;;;-3.30;99.90;;;;;;4994602;28;20100;-79
2024/01/09 08:00:53;;;;;;;1.13;1.13;;;-3.30;99.90;;;;;;4983286;28;20096;-80
2024/01/09 08:03:19;;;;;;;1.60;0.67;;;-3.30;99.90;;;;;;4986558;28;20067;-80
2024/01/09 08:05:45;;;;;;;0.67;0.67;;;-3.30;99.90;;;;;;5001996;28;20204;-79
2024/01/09 08:08:11;;;;;;;1.60;1.40;;;-3.30;99.90;;;;;;5002418;28;20054;-80
2024/01/09 08:10:36;;;;;;;2.67;2.47;;;-3.30;99.90;;;;;;5001088;28;20058;-79
2024/01/09 08:13:02;;;;;;;3.10;1.53;;;-3.30;99.90;;;;;;5002874;28;20416;-79
2024/01/09 08:15:29;;;;;;;1.30;1.17;;;-3.30;99.90;;;;;;5002266;28;20042;-79
2024/01/09 08:17:54;;;;;;;1.30;0.77;;;-3.30;99.90;;;;;;4983280;28;20042;-80
2024/01/09 08:20:20;;;;;;;1.53;1.43;;;-3.30;99.90;;;;;;4965831;28;20050;-79
2024/01/09 08:22:45;;;;;;;1.80;1.60;;;-3.30;99.90;;;;;;5002845;28;20073;-79
2024/01/09 08:25:11;;;;;;;2.53;1.60;;;-3.20;99.90;;;;;;5002267;28;20034;-80
2024/01/09 08:27:37;;;;;;;2.23;1.93;;;-3.20;99.90;;;;;;4985097;28;20243;-78
2024/01/09 08:30:03;;;;;;;1.40;1.30;;;-3.20;99.90;;;;;;5001890;28;20069;-80
2024/01/09 08:32:29;;;;;;;2.10;1.40;;;-3.20;99.90;;;;;;5002364;28;20041;-78
2024/01/09 08:34:54;;;;;;;2.17;2.00;;;-3.20;99.90;;;;;;5000692;28;20045;-79
2024/01/09 08:37:20;;;;;;;2.07;1.07;;;-3.20;99.90;;;;;;4999304;28;20517;-80
2024/01/09 08:39:45;;;;;;;0.60;0.60;;;-3.20;99.90;;;;;;4994188;28;20072;-80
2024/01/09 08:42:11;;;;;;;0.87;0.87;;;-3.20;99.90;;;;;;4981707;28;20077;-79
2024/01/09 08:44:37;;;;;;;0.93;0.87;;;-3.20;99.90;;;;;;4978687;28;20045;-80
2024/01/09 08:47:02;;;;;;;1.47;1.37;;;-3.20;99.90;;;;;;5001334;28;20072;-80
2024/01/09 08:49:28;;;;;;;1.43;1.43;;;-3.20;99.90;;;;;;5001541;28;20112;-80
2024/01/09 08:51:54;;;;;;;0.97;0.97;;;-3.20;99.90;;;;;;5001875;28;20062;-80
2024/01/09 08:54:22;;;;;;;0.53;0.53;;;-3.10;99.90;;;;;;4982483;28;20054;-80
2024/01/09 08:56:47;;;;;;;1.00;1.00;;;-3.20;99.90;;;;;;4981862;28;20048;-79
2024/01/09 08:59:13;;;;;;;0.63;0.63;;;-3.20;99.90;;;;;;4981536;28;20046;-80
2024/01/09 09:01:38;;;;;;;8.33;1.37;;;-3.20;99.90;;;;;;4982877;28;20440;-80
2024/01/09 09:04:04;;;;;;;0.67;0.67;;;-3.10;99.90;;;;;;4981872;28;20137;-79
2024/01/09 09:06:30;;;;;;;0.67;0.67;;;-3.10;99.90;;;;;;4983916;28;20038;-80
2024/01/09 09:08:55;;;;;;;0.80;0.80;;;-3.10;99.90;;;;;;4981851;28;20034;-80
2024/01/09 09:11:21;;;;;;;3.23;0.77;;;-3.10;99.90;;;;;;4982150;28;20556;-79
2024/01/09 09:13:47;;;;;;;0.73;0.60;;;-3.10;99.90;;;;;;4982337;28;20081;-79
2024/01/09 09:16:14;;;;;;;1.70;1.60;;;-3.00;99.90;;;;;;4981692;28;20078;-80
2024/01/09 09:18:39;;;;;;;1.13;1.13;;;-3.00;99.90;;;;;;4981041;28;20051;-79
2024/01/09 09:21:05;;;;;;;0.90;0.87;;;-3.00;99.90;;;;;;4991220;28;20512;-79
2024/01/09 09:23:32;;;;;;;1.10;1.07;;;-3.00;99.90;;;;;;4986456;28;20100;-80
2024/01/09 09:25:58;;;;;;;1.60;1.50;;;-2.90;99.90;;;;;;4981839;28;20357;-79
2024/01/09 09:28:24;;;;;;;1.23;1.23;;;-2.90;99.90;;;;;;5001338;28;20050;-80
2024/01/09 09:30:49;;;;;;;0.73;0.73;;;-2.90;99.90;;;;;;4999331;28;20048;-79
2024/01/09 09:33:15;;;;;;;0.80;0.80;;;-2.90;99.90;;;;;;4985666;28;20050;-80
2024/01/09 09:35:41;;;;;;;2.07;1.07;;;-2.80;99.90;;;;;;4979883;28;20452;-81
2024/01/09 09:38:06;;;;;;;0.67;0.67;;;-2.80;99.90;;;;;;4964033;28;20228;-80
2024/01/09 09:40:32;;;;;;;1.30;1.20;;;-2.80;99.90;;;;;;4979940;28;20046;-80
2024/01/09 09:43:02;;;;;;;0.87;0.87;;;-2.80;99.90;;;;;;4980793;28;20101;-81
2024/01/09 09:45:29;;;;;;;0.50;0.50;;;-2.80;99.90;;;;;;4980077;28;20046;-79
2024/01/09 09:47:56;;;;;;;0.53;0.53;;;-2.70;99.90;;;;;;4981806;28;20069;-80
2024/01/09 09:50:22;;;;;;;0.57;0.57;;;-2.70;99.90;;;;;;4980747;28;20604;-80
2024/01/09 09:52:48;;;;;;;1.77;1.70;;;-2.70;99.90;;;;;;4980429;28;20121;-79
2024/01/09 09:55:14;;;;;;;3.80;1.07;;;-2.70;99.90;;;;;;4979518;28;20057;-81
2024/01/09 09:57:39;;;;;;;1.87;1.70;;;-2.60;99.90;;;;;;4981236;28;20046;-80
2024/01/09 10:00:09;;;;;;;1.70;1.27;;;-2.60;99.90;;;;;;4988449;28;20053;-79
2024/01/09 10:02:41;;;;;;;1.40;1.30;;;-2.60;99.90;;;;;;4983845;28;20041;-80
2024/01/09 10:05:12;;;;;;;;;;;-2.60;99.90;;;;;;5000127;28;20504;-80
2024/01/09 10:07:39;;;;;;;3.83;1.03;;;-2.60;99.90;;;;;;4999666;28;19929;-80
2024/01/09 10:10:08;;;;;;;2.73;0.87;;;-2.60;99.90;;;;;;4999417;28;20049;-80
2024/01/09 10:12:34;;;;;;;0.67;0.67;;;-2.60;99.90;;;;;;5000135;28;20053;-80
2024/01/09 10:15:11;;;;;;;1.23;1.13;;;-2.50;99.90;;;;;;4998813;28;20411;-79
2024/01/09 10:17:41;;;;;;;0.87;0.47;;;-2.50;99.90;;;;;;4982625;28;20085;-79
2024/01/09 10:20:08;;;;;;;1.20;1.17;;;-2.40;99.90;;;;;;5000486;28;20479;-80
2024/01/09 10:22:35;;;;;;;2.27;1.53;;;-2.40;99.90;;;;;;4999488;28;20536;-79
2024/01/09 10:25:06;;;;;;;0.77;0.77;;;-2.40;99.90;;;;;;4998743;28;20424;-80
2024/01/09 10:27:35;;;;;;;0.63;0.63;;;-2.40;99.90;;;;;;4999468;28;20169;-80
2024/01/09 10:30:00;;;;;;;0.70;0.70;;;-2.30;99.90;;;;;;5001085;28;20085;-81
2024/01/09 10:32:26;;;;;;;1.57;1.47;;;-2.30;99.90;;;;;;4999472;28;20085;-80
2024/01/09 10:34:51;;;;;;;1.17;1.10;;;-2.30;99.90;;;;;;5000226;28;20042;-80
2024/01/09 10:37:18;;;;;;;1.80;1.47;;;-2.20;99.90;;;;;;5001520;28;20408;-80
2024/01/09 10:39:48;;;;;;;2.93;1.10;;;-2.20;99.90;;;;;;4998692;28;20120;-79
2024/01/09 10:42:13;;;;;;;2.10;1.50;;;-2.20;99.90;;;;;;5000392;28;20741;-81
2024/01/09 10:44:39;;;;;;;1.87;1.77;;;-2.20;99.90;;;;;;5001438;28;20049;-80
2024/01/09 10:47:09;;;;;;;2.33;2.07;;;-2.10;99.90;;;;;;4998836;28;20039;-80
2024/01/09 10:49:38;;;;;;;0.03;0.03;;;-2.10;99.90;;;;;;4999962;28;20054;-78
2024/01/09 10:52:06;;;;;;;1.67;1.27;;;-2.00;99.90;;;;;;5000425;28;20101;-80
2024/01/09 10:54:33;;;;;;;0.97;0.73;;;-2.00;99.90;;;;;;4998730;28;20081;-80
2024/01/09 10:57:02;;;;;;;3.23;1.30;;;-2.00;99.90;;;;;;5000264;28;20124;-81
2024/01/09 10:59:29;;;;;;;2.33;1.77;;;-1.90;99.90;;;;;;4997129;28;20107;-80
2024/01/09 11:01:55;;;;;;;0.80;0.80;;;-1.90;99.90;;;;;;4979831;28;20100;-79
2024/01/09 11:04:20;;;;;;;1.10;1.10;;;-1.90;99.90;;;;;;4979575;28;20436;-79
2024/01/09 11:06:49;;;;;;;0.67;0.67;;;-1.90;99.90;;;;;;4982000;28;20054;-80
2024/01/09 11:09:18;;;;;;;1.23;1.17;;;-1.80;99.90;;;;;;4979670;28;20393;-79
2024/01/09 11:11:45;;;;;;;0.87;0.87;;;-1.80;99.90;;;;;;4980846;28;20136;-80
2024/01/09 11:14:13;;;;;;;0.80;0.80;;;-1.80;99.90;;;;;;4980444;28;20105;-80
2024/01/09 11:16:42;;;;;;;2.03;0.70;;;-1.70;99.90;;;;;;4990162;28;20057;-81
2024/01/09 11:19:11;;;;;;;1.00;1.00;;;-1.70;99.90;;;;;;4980965;28;20093;-79
2024/01/09 11:21:37;;;;;;;1.90;1.10;;;-1.70;99.90;;;;;;4979938;28;20058;-81
2024/01/09 11:24:03;;;;;;;0.47;0.47;;;-1.60;99.90;;;;;;4981174;28;20034;-82
2024/01/09 11:26:32;;;;;;;0.50;0.50;;;-1.60;99.90;;;;;;4996465;28;20147;-80
2024/01/09 11:28:59;;;;;;;1.00;1.00;;;-1.60;99.90;;;;;;4986360;28;20049;-81
2024/01/09 11:31:27;;;;;;;0.90;0.90;;;-1.60;99.90;;;;;;4983941;28;20061;-82
2024/01/09 11:33:55;;;;;;;0.70;0.70;;;-1.50;99.90;;;;;;4983306;28;20486;-82
2024/01/09 11:36:27;;;;;;;1.00;1.00;;;-1.50;99.90;;;;;;4990847;28;20043;-80
2024/01/09 11:38:53;;;;;;;1.95;1.83;;;-1.50;99.90;;;;;;5002468;28;20058;-82
2024/01/09 11:41:23;;;;;;;0.57;0.57;;;-1.50;99.90;;;;;;4996602;28;20038;-81
2024/01/09 11:44:03;;;;;;;4.63;1.43;;;-1.40;99.90;;;;;;4983898;28;20046;-81
2024/01/09 11:46:31;;;;;;;2.70;1.07;;;-1.40;99.90;;;;;;4983250;28;20258;-80
2024/01/09 11:48:57;;;;;;;0.70;0.70;;;-1.40;99.90;;;;;;4997973;28;20053;-81
2024/01/09 11:51:24;;;;;;;1.00;1.00;;;-1.30;99.90;;;;;;4990369;28;20066;-82
2024/01/09 11:53:50;;;;;;;0.37;0.37;;;-1.30;99.90;;;;;;4988813;28;20037;-81
2024/01/09 11:56:16;;;;;;;0.50;0.50;;;-1.30;99.90;;;;;;4983356;28;20050;-84
2024/01/09 11:58:47;;;;;;;0.47;0.47;;;-1.30;99.90;;;;;;4984828;28;20049;-83
2024/01/09 12:01:13;;;;;;;1.67;1.57;;;-1.30;99.90;;;;;;4993786;28;20600;-81
2024/01/09 12:03:39;;;;;;;4.33;1.20;;;-1.30;99.90;;;;;;4991451;28;20096;-82
2024/01/09 12:06:05;;;;;;;0.83;0.40;;;-1.20;99.90;;;;;;5001936;28;20401;-83
2024/01/09 12:08:34;;;;;;;4.10;0.83;;;-1.20;99.90;;;;;;4997154;28;20405;-82
2024/01/09 12:11:02;;;;;;;3.20;1.60;;;-1.20;99.90;;;;;;4982234;28;20053;-80
2024/01/09 12:13:28;;;;;;;0.53;0.47;;;-1.20;99.90;;;;;;4992090;28;20062;-82
2024/01/09 12:15:54;;;;;;;0.97;0.90;;;-1.20;99.90;;;;;;4994947;28;20049;-82
2024/01/09 12:18:20;;;;;;;1.40;1.13;;;-1.10;99.90;;;;;;5001844;28;20132;-80
2024/01/09 12:20:45;;;;;;;1.23;1.23;;;-1.10;99.90;;;;;;5004010;28;20431;-81
2024/01/09 12:23:11;;;;;;;0.73;0.67;;;-1.10;99.90;;;;;;4991781;28;20038;-81
2024/01/09 12:25:37;;;;;;;0.40;0.40;;;-1.10;99.90;;;;;;4984663;28;20168;-82
2024/01/09 12:28:03;;;;;;;2.03;1.93;;;-1.10;99.90;;;;;;4984811;28;20065;-82
2024/01/09 12:30:31;;;;;;;4.27;1.17;;;-1.00;99.90;;;;;;4991281;28;20045;-80
2024/01/09 12:32:58;;;;;;;0.40;0.40;;;-1.00;99.90;;;;;;4989676;28;20042;-80
2024/01/09 12:35:24;;;;;;;1.70;0.87;;;-1.00;99.90;;;;;;4986494;28;20085;-78
2024/01/09 12:37:50;;;;;;;0.97;0.97;;;-1.00;99.90;;;;;;4993329;28;20096;-78
2024/01/09 12:40:16;;;;;;;1.60;1.30;;;-1.00;99.90;;;;;;4987839;28;20060;-80
2024/01/09 12:42:42;;;;;;;0.87;0.87;;;-1.00;99.90;;;;;;5003538;28;20042;-80